createdAt,value
2018-04-12T00:00:27.356Z,53.00
2018-04-12T00:02:55.658Z,51.83
2018-04-12T00:05:23.214Z,52.27
2018-04-12T00:07:50.762Z,53.70
2018-04-12T00:10:18.298Z,51.10
2018-04-12T00:12:45.904Z,50.80
2018-04-12T00:15:13.545Z,53.70
2018-04-12T00:17:41.177Z,52.47
2018-04-12T00:20:08.719Z,50.90
2018-04-12T00:22:36.253Z,50.13
2018-04-12T00:25:03.798Z,51.33
2018-04-12T00:27:31.320Z,49.33
2018-04-12T00:29:59.614Z,50.13
2018-04-12T00:32:28.017Z,48.43
2018-04-12T00:34:55.591Z,48.90
2018-04-12T00:37:23.107Z,51.37
2018-04-12T00:39:53.244Z,50.13
2018-04-12T00:42:20.881Z,48.57
2018-04-12T00:44:49.183Z,50.57
2018-04-12T00:47:16.737Z,52.70
2018-04-12T00:49:44.280Z,52.33
2018-04-12T00:52:12.682Z,47.60
2018-04-12T00:54:40.233Z,50.20
2018-04-12T00:57:07.755Z,47.80
2018-04-12T00:59:35.301Z,52.90
2018-04-12T01:02:02.852Z,43.27
2018-04-12T01:04:30.391Z,47.23
2018-04-12T01:06:57.956Z,46.20
2018-04-12T01:09:25.493Z,45.77
2018-04-12T01:11:53.058Z,44.80
2018-04-12T01:14:20.574Z,48.00
2018-04-12T01:16:48.122Z,48.00
2018-04-12T01:19:15.669Z,49.37
2018-04-12T01:21:44.015Z,49.00
2018-04-12T01:24:11.549Z,51.80
2018-04-12T01:26:39.919Z,50.33
2018-04-12T01:29:08.302Z,48.67
2018-04-12T01:31:36.628Z,51.20
2018-04-12T01:34:04.212Z,48.07
2018-04-12T01:36:31.779Z,49.47
2018-04-12T01:39:00.130Z,47.10
2018-04-12T01:41:27.695Z,51.10
2018-04-12T01:43:55.364Z,48.40
2018-04-12T01:46:22.950Z,52.30
2018-04-12T01:48:51.266Z,48.60
2018-04-12T01:51:18.839Z,52.30
2018-04-12T01:53:46.411Z,51.00
2018-04-12T01:56:13.986Z,50.87
2018-04-12T01:58:41.541Z,45.73
2018-04-12T02:01:09.118Z,50.67
2018-04-12T02:03:37.435Z,43.53
2018-04-12T02:06:05.019Z,49.10
2018-04-12T02:08:32.574Z,50.63
2018-04-12T02:11:00.139Z,52.43
2018-04-12T02:13:27.732Z,51.57
2018-04-12T02:15:56.056Z,50.17
2018-04-12T02:18:23.719Z,49.00
2018-04-12T02:20:51.300Z,54.07
2018-04-12T02:23:18.853Z,54.43
2018-04-12T02:25:46.431Z,52.00
2018-04-12T02:28:13.955Z,54.33
2018-04-12T02:30:41.486Z,54.07
2018-04-12T02:33:09.051Z,53.77
2018-04-12T02:35:36.610Z,52.77
2018-04-12T02:38:04.170Z,54.17
2018-04-12T02:40:31.761Z,54.33
2018-04-12T02:42:59.301Z,53.37
2018-04-12T02:45:26.834Z,50.17
2018-04-12T02:47:54.411Z,56.77
2018-04-12T02:50:21.943Z,50.30
2018-04-12T02:52:50.262Z,56.70
2018-04-12T02:55:17.813Z,50.60
2018-04-12T02:57:45.407Z,51.50
2018-04-12T03:00:12.996Z,54.03
2018-04-12T03:05:31.963Z,54.90
2018-04-12T03:08:00.302Z,53.50
2018-04-12T03:10:27.875Z,56.20
2018-04-12T03:12:55.460Z,56.47
2018-04-12T03:15:22.993Z,55.63
2018-04-12T03:17:50.575Z,56.67
2018-04-12T03:23:08.904Z,62.50
2018-04-12T03:25:36.429Z,58.57
2018-04-12T03:28:03.953Z,55.63
2018-04-12T03:30:31.580Z,65.07
2018-04-12T03:33:01.895Z,56.43
2018-04-12T03:35:29.493Z,60.53
2018-04-12T03:37:57.079Z,69.20
2018-04-12T03:40:25.407Z,73.00
2018-04-12T03:42:52.951Z,73.10
2018-04-12T03:45:20.483Z,68.27
2018-04-12T03:47:48.994Z,73.40
2018-04-12T03:50:16.548Z,71.50
2018-04-12T03:52:44.130Z,76.07
2018-04-12T03:55:11.678Z,70.73
2018-04-12T03:57:39.214Z,75.13
2018-04-12T04:00:06.810Z,73.03
2018-04-12T04:02:34.386Z,81.20
2018-04-12T04:05:01.951Z,71.87
2018-04-12T04:07:29.570Z,76.70
2018-04-12T04:09:57.132Z,80.33
2018-04-12T04:12:24.673Z,71.67
2018-04-12T04:18:17.799Z,80.40
2018-04-12T04:20:57.351Z,78.00
2018-04-12T04:23:24.870Z,82.93
2018-04-12T04:25:52.390Z,76.27
2018-04-12T04:28:20.751Z,85.20
2018-04-12T04:30:49.076Z,77.33
2018-04-12T04:33:16.640Z,72.03
2018-04-12T04:35:44.203Z,68.50
2018-04-12T04:38:11.751Z,72.97
2018-04-12T04:40:39.395Z,70.67
2018-04-12T04:43:06.959Z,83.97
2018-04-12T04:45:34.507Z,77.23
2018-04-12T04:48:02.851Z,71.90
2018-04-12T04:50:30.369Z,70.70
2018-04-12T04:52:58.031Z,71.60
2018-04-12T04:55:25.584Z,74.10
2018-04-12T04:57:53.139Z,66.43
2018-04-12T05:00:20.695Z,70.73
2018-04-12T05:02:48.290Z,71.93
2018-04-12T05:05:15.821Z,76.23
2018-04-12T05:07:43.346Z,75.77
2018-04-12T05:10:11.666Z,69.87
2018-04-12T05:12:39.211Z,62.30
2018-04-12T05:15:06.778Z,65.53
2018-04-12T05:17:34.323Z,62.43
2018-04-12T05:20:01.926Z,63.47
2018-04-12T05:22:29.457Z,64.67
2018-04-12T05:24:56.997Z,59.80
2018-04-12T05:27:24.579Z,62.43
2018-04-12T05:29:52.103Z,63.57
2018-04-12T05:32:19.903Z,60.30
2018-04-12T05:34:47.452Z,60.70
2018-04-12T05:37:15.010Z,58.93
2018-04-12T05:39:42.559Z,58.97
2018-04-12T05:42:10.099Z,56.53
2018-04-12T05:44:38.380Z,60.47
2018-04-12T05:47:06.730Z,60.50
2018-04-12T05:49:34.262Z,59.10
2018-04-12T05:52:01.812Z,58.97
2018-04-12T05:54:29.576Z,58.13
2018-04-12T05:56:57.126Z,62.17
2018-04-12T05:59:24.719Z,60.73
2018-04-12T06:01:52.278Z,54.60
2018-04-12T06:04:19.831Z,59.43
2018-04-12T06:06:47.414Z,60.53
2018-04-12T06:09:14.958Z,57.90
2018-04-12T06:11:42.506Z,56.77
2018-04-12T06:14:10.050Z,59.37
2018-04-12T06:16:37.623Z,57.30
2018-04-12T06:19:05.262Z,55.87
2018-04-12T06:21:32.811Z,58.10
2018-04-12T06:24:00.344Z,55.67
2018-04-12T06:26:28.661Z,55.73
2018-04-12T06:28:56.239Z,54.73
2018-04-12T06:31:23.800Z,55.77
2018-04-12T06:33:51.382Z,56.20
2018-04-12T06:36:18.945Z,54.43
2018-04-12T06:38:46.481Z,53.00
2018-04-12T06:41:14.012Z,52.03
2018-04-12T06:43:41.595Z,53.03
2018-04-12T06:46:09.149Z,53.13
2018-04-12T06:48:36.680Z,52.00
2018-04-12T06:51:04.251Z,47.93
2018-04-12T06:53:31.807Z,50.23
2018-04-12T06:55:59.363Z,51.20
2018-04-12T06:58:27.059Z,49.80
2018-04-12T07:00:54.600Z,51.30
2018-04-12T07:03:22.182Z,50.60
2018-04-12T07:05:49.726Z,49.10
2018-04-12T07:08:17.241Z,51.00
2018-04-12T07:10:45.583Z,51.03
2018-04-12T07:13:13.165Z,52.90
2018-04-12T07:15:41.518Z,50.63
2018-04-12T07:18:09.175Z,51.97
2018-04-12T07:20:36.725Z,51.90
2018-04-12T07:23:04.275Z,48.17
2018-04-12T07:25:31.950Z,49.53
2018-04-12T07:27:59.635Z,48.67
2018-04-12T07:30:27.199Z,48.13
2018-04-12T07:32:55.527Z,50.43
2018-04-12T07:35:23.081Z,51.07
2018-04-12T07:37:50.600Z,48.10
2018-04-12T07:40:18.897Z,48.77
2018-04-12T07:42:46.504Z,48.63
2018-04-12T07:45:14.123Z,45.93
2018-04-12T07:47:41.733Z,46.33
2018-04-12T07:50:09.284Z,44.60
2018-04-12T07:52:36.968Z,43.03
2018-04-12T07:55:04.582Z,42.27
2018-04-12T07:57:32.145Z,41.33
2018-04-12T07:59:59.712Z,40.47
2018-04-12T08:02:27.313Z,43.27
2018-04-12T08:04:55.655Z,42.00
2018-04-12T08:07:23.287Z,37.90
2018-04-12T08:09:50.830Z,38.60
2018-04-12T08:12:19.140Z,40.23
2018-04-12T08:14:46.683Z,41.50
2018-04-12T08:17:14.217Z,38.90
2018-04-12T08:19:42.511Z,36.80
2018-04-12T08:22:10.089Z,38.70
2018-04-12T08:24:37.616Z,37.70
2018-04-12T08:27:05.921Z,35.47
2018-04-12T08:29:33.491Z,37.03
2018-04-12T08:32:01.049Z,35.67
2018-04-12T08:34:43.417Z,35.47
2018-04-12T08:37:11.746Z,36.60
2018-04-12T08:39:39.262Z,34.63
2018-04-12T08:42:06.842Z,37.43
2018-04-12T08:44:34.410Z,34.03
2018-04-12T08:47:01.966Z,34.03
2018-04-12T08:49:29.513Z,33.50
2018-04-12T08:51:57.107Z,33.03
2018-04-12T08:54:24.659Z,32.20
2018-04-12T08:56:52.242Z,32.07
2018-04-12T08:59:19.819Z,31.53
2018-04-12T09:01:48.203Z,33.97
2018-04-12T09:04:16.546Z,30.90
2018-04-12T09:06:44.074Z,30.30
2018-04-12T09:09:11.611Z,30.87
2018-04-12T09:11:39.196Z,29.53
2018-04-12T09:14:06.855Z,29.90
2018-04-12T09:16:34.418Z,29.93
2018-04-12T09:19:01.955Z,28.87
2018-04-12T09:21:29.503Z,28.60
2018-04-12T09:23:58.710Z,28.10
2018-04-12T09:26:26.322Z,27.70
2018-04-12T09:28:54.609Z,25.60
2018-04-12T09:31:22.295Z,24.73
2018-04-12T09:33:50.639Z,26.03
2018-04-12T09:36:18.195Z,23.93
2018-04-12T09:38:45.739Z,19.93
2018-04-12T09:41:13.431Z,23.70
2018-04-12T09:43:40.961Z,22.20
2018-04-12T09:46:08.488Z,21.10
2018-04-12T09:48:36.077Z,22.43
2018-04-12T09:51:03.631Z,20.93
2018-04-12T09:53:31.179Z,20.53
2018-04-12T09:55:58.733Z,20.73
2018-04-12T09:58:26.287Z,18.60
2018-04-12T10:00:55.764Z,18.20
2018-04-12T10:03:24.069Z,16.43
2018-04-12T10:05:57.292Z,16.80
2018-04-12T10:08:28.723Z,16.23
2018-04-12T10:10:56.292Z,16.17
2018-04-12T10:13:23.840Z,12.53
2018-04-12T10:15:51.417Z,13.70
2018-04-12T10:18:18.946Z,13.43
2018-04-12T10:20:46.499Z,12.80
2018-04-12T10:23:14.051Z,12.53
2018-04-12T10:25:42.339Z,13.80
2018-04-12T10:28:09.920Z,11.37
2018-04-12T10:30:37.450Z,11.27
2018-04-12T10:33:05.085Z,11.87
2018-04-12T10:35:32.626Z,10.27
2018-04-12T10:38:00.264Z,8.70
2018-04-12T10:40:27.835Z,8.70
2018-04-12T10:42:55.421Z,8.83
2018-04-12T10:45:22.977Z,8.77
2018-04-12T10:47:50.518Z,9.03
2018-04-12T10:50:18.039Z,8.73
2018-04-12T10:52:45.606Z,9.17
2018-04-12T10:55:13.158Z,8.73
2018-04-12T10:57:40.729Z,8.97
2018-04-12T11:00:08.311Z,8.03
2018-04-12T11:02:35.946Z,9.83
2018-04-12T11:05:03.521Z,9.30
2018-04-12T11:07:31.154Z,9.10
2018-04-12T11:09:58.760Z,9.47
2018-04-12T11:12:26.278Z,9.87
2018-04-12T11:14:53.875Z,10.10
2018-04-12T11:17:21.458Z,10.00
2018-04-12T11:19:49.782Z,10.27
2018-04-12T11:22:17.376Z,12.33
2018-04-12T11:24:44.910Z,12.13
2018-04-12T11:27:12.630Z,11.93
2018-04-12T11:29:40.225Z,11.73
2018-04-12T11:32:07.773Z,8.73
2018-04-12T11:34:35.322Z,9.80
2018-04-12T11:37:02.931Z,9.63
2018-04-12T11:39:30.478Z,9.10
2018-04-12T11:41:58.013Z,8.27
2018-04-12T11:44:25.569Z,7.33
2018-04-12T11:46:53.176Z,7.57
2018-04-12T11:49:20.751Z,6.77
2018-04-12T11:51:48.353Z,6.70
2018-04-12T11:54:15.894Z,6.47
2018-04-12T11:56:44.196Z,6.37
2018-04-12T11:59:11.767Z,6.40
2018-04-12T12:01:39.391Z,6.27
2018-04-12T12:04:06.971Z,7.40
2018-04-12T12:06:34.563Z,5.50
2018-04-12T12:09:02.219Z,6.23
2018-04-12T12:11:29.770Z,6.00
2018-04-12T12:13:57.425Z,6.17
2018-04-12T12:16:25.007Z,5.80
2018-04-12T12:18:52.530Z,4.97
2018-04-12T12:21:20.170Z,5.93
2018-04-12T12:23:48.546Z,5.77
2018-04-12T12:26:16.877Z,4.57
2018-04-12T12:28:44.397Z,5.77
2018-04-12T12:31:11.963Z,5.67
2018-04-12T12:33:39.502Z,5.30
2018-04-12T12:36:07.844Z,5.00
2018-04-12T12:38:35.426Z,5.17
2018-04-12T12:41:03.871Z,5.73
2018-04-12T12:43:31.475Z,4.43
2018-04-12T12:45:59.767Z,5.47
2018-04-12T12:48:27.339Z,5.60
2018-04-12T12:50:54.873Z,4.30
2018-04-12T12:53:23.306Z,3.83
2018-04-12T12:55:50.864Z,4.10
2018-04-12T12:58:18.466Z,4.10
2018-04-12T13:00:46.782Z,4.73
2018-04-12T13:03:14.326Z,4.00
2018-04-12T13:05:41.874Z,4.93
2018-04-12T13:08:09.436Z,4.07
2018-04-12T13:10:37.015Z,4.00
2018-04-12T13:13:04.536Z,4.17
2018-04-12T13:15:32.946Z,3.83
2018-04-12T13:18:00.520Z,3.83
2018-04-12T13:20:28.069Z,5.33
2018-04-12T13:22:55.642Z,5.10
2018-04-12T13:25:23.169Z,4.23
2018-04-12T13:27:50.686Z,4.13
2018-04-12T13:30:18.306Z,4.93
2018-04-12T13:32:45.896Z,4.07
2018-04-12T13:35:13.442Z,4.87
2018-04-12T13:37:40.983Z,3.90
2018-04-12T13:40:08.545Z,4.87
2018-04-12T13:42:36.091Z,4.40
2018-04-12T13:45:03.634Z,4.30
2018-04-12T13:47:31.959Z,4.20
2018-04-12T13:49:59.615Z,4.40
2018-04-12T13:52:27.407Z,4.73
2018-04-12T13:54:55.748Z,4.23
2018-04-12T13:57:23.406Z,5.00
2018-04-12T13:59:50.934Z,4.60
2018-04-12T14:02:19.258Z,5.50
2018-04-12T14:04:46.782Z,5.10
2018-04-12T14:07:14.311Z,4.87
2018-04-12T14:09:41.848Z,4.60
2018-04-12T14:12:09.479Z,5.27
2018-04-12T14:14:37.035Z,6.63
2018-04-12T14:17:04.596Z,5.40
2018-04-12T14:19:32.245Z,5.70
2018-04-12T14:21:59.762Z,5.73
2018-04-12T14:24:27.308Z,6.60
2018-04-12T14:26:54.972Z,6.40
2018-04-12T14:29:23.313Z,5.30
2018-04-12T14:31:50.910Z,4.40
2018-04-12T14:34:18.443Z,4.60
2018-04-12T14:36:46.090Z,4.37
2018-04-12T14:39:13.641Z,4.87
2018-04-12T14:41:41.211Z,4.10
2018-04-12T14:44:08.779Z,4.40
2018-04-12T14:46:36.333Z,4.97
2018-04-12T14:49:03.963Z,3.80
2018-04-12T14:51:31.568Z,3.57
2018-04-12T14:53:59.146Z,4.00
2018-04-12T14:56:26.758Z,4.17
2018-04-12T14:58:54.344Z,5.17
2018-04-12T15:01:21.960Z,4.67
2018-04-12T15:03:49.575Z,4.40
2018-04-12T15:06:17.148Z,3.90
2018-04-12T15:08:45.490Z,4.03
2018-04-12T15:11:13.029Z,3.80
2018-04-12T15:13:40.611Z,4.73
2018-04-12T15:16:08.170Z,5.37
2018-04-12T15:18:35.753Z,4.23
2018-04-12T15:21:03.273Z,4.23
2018-04-12T15:23:30.863Z,4.37
2018-04-12T15:25:58.438Z,4.17
2018-04-12T15:28:26.011Z,3.90
2018-04-12T15:30:53.630Z,4.47
2018-04-12T15:33:21.221Z,4.00
2018-04-12T15:35:48.742Z,4.50
2018-04-12T15:38:16.303Z,3.53
2018-04-12T15:40:43.924Z,4.60
2018-04-12T15:43:11.610Z,4.10
2018-04-12T15:45:39.212Z,3.70
2018-04-12T15:48:06.740Z,4.20
2018-04-12T15:50:34.281Z,4.27
2018-04-12T15:53:01.914Z,3.53
2018-04-12T15:55:30.267Z,4.00
2018-04-12T15:57:57.827Z,4.77
2018-04-12T16:00:25.567Z,4.43
2018-04-12T16:02:53.102Z,3.47
2018-04-12T16:05:20.626Z,3.90
2018-04-12T16:07:48.934Z,3.90
2018-04-12T16:10:16.503Z,3.30
2018-04-12T16:12:44.072Z,3.20
2018-04-12T16:15:11.585Z,3.40
2018-04-12T16:17:39.203Z,3.40
2018-04-12T16:20:06.811Z,3.30
2018-04-12T16:22:35.237Z,3.67
2018-04-12T16:25:02.818Z,3.90
2018-04-12T16:27:30.366Z,3.67
2018-04-12T16:29:57.975Z,3.20
2018-04-12T16:32:26.292Z,3.80
2018-04-12T16:34:53.846Z,3.53
2018-04-12T16:37:21.419Z,3.90
2018-04-12T16:39:49.091Z,2.90
2018-04-12T16:42:16.727Z,3.57
2018-04-12T16:44:44.765Z,2.50
2018-04-12T16:47:13.127Z,3.50
2018-04-12T16:49:40.660Z,4.00
2018-04-12T16:52:08.239Z,4.33
2018-04-12T16:54:35.873Z,3.80
2018-04-12T16:57:03.551Z,4.40
2018-04-12T16:59:31.171Z,4.07
2018-04-12T17:01:58.735Z,4.20
2018-04-12T17:04:26.360Z,3.90
2018-04-12T17:06:54.677Z,3.97
2018-04-12T17:09:22.588Z,5.10
2018-04-12T17:11:50.926Z,4.27
2018-04-12T17:14:18.619Z,4.23
2018-04-12T17:16:46.153Z,4.00
2018-04-12T17:19:13.756Z,4.53
2018-04-12T17:21:41.263Z,4.13
2018-04-12T17:24:08.955Z,4.00
2018-04-12T17:26:36.543Z,4.70
2018-04-12T17:29:04.882Z,4.43
2018-04-12T17:31:32.399Z,4.63
2018-04-12T17:34:00.037Z,4.70
2018-04-12T17:36:27.590Z,5.20
2018-04-12T17:38:55.945Z,5.30
2018-04-12T17:41:23.486Z,4.87
2018-04-12T17:43:51.073Z,5.57
2018-04-12T17:46:18.659Z,4.23
2018-04-12T17:48:46.249Z,4.73
2018-04-12T17:51:13.791Z,4.60
2018-04-12T17:53:42.074Z,3.83
2018-04-12T17:56:09.643Z,4.53
2018-04-12T17:58:37.167Z,5.40
2018-04-12T18:01:04.739Z,4.30
2018-04-12T18:03:33.075Z,5.10
2018-04-12T18:06:00.666Z,5.00
2018-04-12T18:08:28.240Z,5.40
2018-04-12T18:10:56.550Z,5.03
2018-04-12T18:13:24.103Z,5.43
2018-04-12T18:15:51.662Z,4.70
2018-04-12T18:18:19.220Z,5.17
2018-04-12T18:20:46.749Z,5.60
2018-04-12T18:23:15.266Z,5.57
2018-04-12T18:25:42.792Z,5.77
2018-04-12T18:28:11.190Z,5.80
2018-04-12T18:30:38.768Z,6.00
2018-04-12T18:33:06.359Z,5.37
2018-04-12T18:35:33.984Z,5.73
2018-04-12T18:38:01.543Z,5.40
2018-04-12T18:40:29.086Z,5.20
2018-04-12T18:42:56.687Z,5.90
2018-04-12T18:45:24.282Z,5.60
2018-04-12T18:47:52.726Z,6.57
2018-04-12T18:50:20.259Z,6.40
2018-04-12T18:52:47.843Z,6.90
2018-04-12T18:55:15.414Z,5.90
2018-04-12T18:57:42.936Z,5.90
2018-04-12T19:00:10.527Z,6.00
2018-04-12T19:02:38.109Z,5.93
2018-04-12T19:05:06.431Z,6.10
2018-04-12T19:07:34.046Z,6.63
2018-04-12T19:10:02.392Z,7.37
2018-04-12T19:12:29.988Z,6.70
2018-04-12T19:14:58.314Z,7.20
2018-04-12T19:17:25.878Z,6.63
2018-04-12T19:19:53.425Z,6.97
2018-04-12T19:22:21.034Z,6.83
2018-04-12T19:24:48.592Z,7.07
2018-04-12T19:27:17.679Z,8.50
2018-04-12T19:29:45.221Z,7.47
2018-04-12T19:32:12.755Z,7.40
2018-04-12T19:34:40.317Z,7.00
2018-04-12T19:37:07.899Z,7.80
2018-04-12T19:39:35.571Z,8.00
2018-04-12T19:42:03.199Z,7.90
2018-04-12T19:44:30.773Z,8.60
2018-04-12T19:46:58.311Z,8.80
2018-04-12T19:49:25.925Z,7.00
2018-04-12T19:51:55.245Z,8.27
2018-04-12T19:54:23.526Z,8.57
2018-04-12T19:56:51.875Z,8.07
2018-04-12T19:59:20.955Z,8.80
2018-04-12T20:01:48.495Z,8.17
2018-04-12T20:04:16.091Z,8.20
2018-04-12T20:06:43.638Z,8.37
2018-04-12T20:09:11.189Z,8.03
2018-04-12T20:11:38.839Z,7.77
2018-04-12T20:14:06.383Z,8.80
2018-04-12T20:16:33.984Z,8.70
2018-04-12T20:19:02.310Z,8.90
2018-04-12T20:21:29.867Z,10.57
2018-04-12T20:23:57.763Z,9.97
2018-04-12T20:26:25.434Z,10.07
2018-04-12T20:28:53.005Z,11.10
2018-04-12T20:31:20.661Z,11.97
2018-04-12T20:33:48.202Z,12.53
2018-04-12T20:36:15.748Z,11.80
2018-04-12T20:38:43.334Z,12.63
2018-04-12T20:41:10.855Z,14.10
2018-04-12T20:43:38.431Z,15.70
2018-04-12T20:46:05.990Z,14.90
2018-04-12T20:48:33.573Z,15.80
2018-04-12T20:51:01.116Z,16.80
2018-04-12T20:53:28.770Z,16.63
2018-04-12T20:55:56.354Z,15.80
2018-04-12T20:58:23.912Z,16.50
2018-04-12T21:00:51.442Z,18.33
2018-04-12T21:03:19.061Z,16.97
2018-04-12T21:05:47.386Z,17.27
2018-04-12T21:08:15.000Z,19.17
2018-04-12T21:10:43.334Z,20.90
2018-04-12T21:13:10.935Z,21.10
2018-04-12T21:15:39.241Z,22.93
2018-04-12T21:18:06.818Z,19.40
2018-04-12T21:20:34.370Z,22.00
2018-04-12T21:23:01.946Z,20.60
2018-04-12T21:25:29.478Z,22.30
2018-04-12T21:30:48.143Z,22.20
2018-04-12T21:33:15.674Z,23.70
2018-04-12T21:35:43.194Z,24.77
2018-04-12T21:38:10.766Z,25.40
2018-04-12T21:40:38.414Z,26.60
2018-04-12T21:43:05.977Z,26.63
2018-04-12T21:45:33.507Z,28.57
2018-04-12T21:48:01.094Z,31.67
2018-04-12T21:50:28.745Z,31.30
2018-04-12T21:52:56.311Z,32.20
2018-04-12T21:55:23.895Z,29.13
2018-04-12T21:57:51.429Z,32.50
2018-04-12T22:00:18.998Z,29.50
2018-04-12T22:02:46.541Z,34.03
2018-04-12T22:05:14.087Z,35.30
2018-04-12T22:07:41.673Z,35.47
2018-04-12T22:10:09.216Z,36.90
2018-04-12T22:12:36.781Z,33.30
2018-04-12T22:15:04.335Z,36.30
2018-04-12T22:17:31.907Z,33.67
2018-04-12T22:19:59.553Z,33.27
2018-04-12T22:22:27.114Z,37.90
2018-04-12T22:24:54.664Z,37.10
2018-04-12T22:27:23.174Z,34.80
2018-04-12T22:29:50.810Z,35.93
2018-04-12T22:32:18.406Z,38.30
2018-04-12T22:34:45.931Z,36.93
2018-04-12T22:37:13.475Z,37.00
2018-04-12T22:39:41.007Z,40.60
2018-04-12T22:42:08.548Z,37.37
2018-04-12T22:44:36.070Z,38.40
2018-04-12T22:47:03.665Z,45.13
2018-04-12T22:49:31.319Z,38.13
2018-04-12T22:51:58.877Z,43.10
2018-04-12T22:54:26.410Z,43.63
2018-04-12T22:56:54.000Z,42.03
2018-04-12T22:59:21.604Z,40.47
2018-04-12T23:01:49.218Z,42.77
2018-04-12T23:04:16.808Z,44.77
2018-04-12T23:06:45.125Z,46.60
2018-04-12T23:09:12.718Z,41.20
2018-04-12T23:11:40.349Z,53.30
2018-04-12T23:14:07.890Z,43.10
2018-04-12T23:16:35.476Z,42.83
2018-04-12T23:19:02.978Z,41.50
2018-04-12T23:21:30.558Z,44.03
2018-04-12T23:23:58.323Z,45.77
2018-04-12T23:26:26.727Z,45.67
2018-04-12T23:28:54.275Z,51.73
2018-04-12T23:31:21.817Z,44.10
2018-04-12T23:33:50.179Z,44.73
2018-04-12T23:36:18.549Z,49.13
2018-04-12T23:38:46.160Z,43.80
2018-04-12T23:41:13.690Z,43.53
2018-04-12T23:43:42.013Z,39.40
2018-04-12T23:46:09.571Z,39.13
2018-04-12T23:48:37.119Z,39.93
2018-04-12T23:51:04.670Z,40.07
2018-04-12T23:53:32.227Z,39.53
2018-04-12T23:55:59.815Z,41.60
2018-04-12T23:58:27.350Z,37.97
